الصفحة الرئيسية
METAR-TAF:

METAR-TAF

مطار :

Dubbo, أستراليا

دائرة عرض: 32-12S, خط طول: 148-34E, ارتفاع: 275 متر

مراقبة الطقس الحالي

تاريخ ووقت الإصدار 46 دقيقة قبل الساعة 07:00UTC
ريح 7 عقدة من الغرب
درجة الحرارة 25°درجة مئوية
الرطوبة 57%
ضغط 1016 hPa
الرؤية 10 كم أو أكثر

METAR: YSDU 310700Z AUTO 27007KT 9999 // NCD 25/16 Q1016

زمن: 18:46 (07:46 UTC)

توقعات

تاريخ ووقت الإصدار 3ساعات و 41 دقيقة قبل الساعة 04:05UTC
التوقعات صالحة من31 الساعة 06 UTC إلى 01 الساعة 00 UTC
ريح 6 عقدة من الغرب/الجنوب الغربي
الرؤية 10 كم أو أكثر
غيوم متفرقة على ارتفاع 4000 قدم
أصبح
من 31 الساعة 10 UTC إلى 31 الساعة 12 UTC
ريح 10 عقدة من الشرق/الجنوب الشرقي
الرؤية 10 كم أو أكثر
الغيوم لا تقل 1500 م ولا وجود لمزنة ركامية السحاب الأسود

TAF: YSDU 310405Z 3106/0100 25006KT 9999 SCT040 BECMG 3110/3112 11010KT CAVOK

أرصاد الطقس والتوقعات من أكثر من 4000 مطار (تقارير الطقس للمطار METAR والتنبؤ بالطقس بالمطارTAF).

المحطات المتاحة هي النقط الصفراء والحمراء على الخريطة.

حرك المؤشر فوق النقطة لمعرفة اسم المحطة.

ثم انقر لمعرفة أرصاد وتوقعات الطقس.

لتغيير الخارطة: اضغط على الأزرار الخضراء مع رمز الصليب الأسود للتكبير. على الزر الأخضر مع شرطة للتصغير، أو على الأسهم الخضراء للخرائط المجاورة.


METAR-TAF: